createdAt,value
2024-02-08T00:01:09.541Z,7.43
2024-02-08T00:03:36.486Z,8.10
2024-02-08T00:06:03.493Z,7.55
2024-02-08T00:08:30.256Z,7.57
2024-02-08T00:10:57.024Z,7.70
2024-02-08T00:13:24.375Z,8.05
2024-02-08T00:15:51.166Z,8.25
2024-02-08T00:18:19.588Z,7.63
2024-02-08T00:20:46.505Z,6.90
2024-02-08T00:23:15.397Z,7.15
2024-02-08T00:25:42.263Z,7.68
2024-02-08T00:28:12.689Z,7.57
2024-02-08T00:30:41.755Z,7.68
2024-02-08T00:33:08.962Z,7.70
2024-02-08T00:35:35.844Z,7.88
2024-02-08T00:38:02.829Z,6.50
2024-02-08T00:40:29.576Z,6.75
2024-02-08T00:42:56.299Z,6.13
2024-02-08T00:45:23.953Z,6.53
2024-02-08T00:47:51.740Z,6.55
2024-02-08T00:50:22.262Z,5.90
2024-02-08T00:52:49.318Z,7.20
2024-02-08T00:55:19.117Z,6.13
2024-02-08T00:57:46.113Z,7.05
2024-02-08T01:00:13.249Z,6.38
2024-02-08T01:02:44.957Z,6.68
2024-02-08T01:05:11.790Z,5.72
2024-02-08T01:07:38.617Z,7.38
2024-02-08T01:10:08.528Z,6.35
2024-02-08T01:12:35.590Z,6.70
2024-02-08T01:15:03.723Z,6.90
2024-02-08T01:17:30.775Z,7.30
2024-02-08T01:20:01.883Z,6.40
2024-02-08T01:22:28.889Z,6.88
2024-02-08T01:24:56.341Z,6.30
2024-02-08T01:27:23.053Z,6.35
2024-02-08T01:30:00.721Z,6.13
2024-02-08T01:32:29.328Z,5.63
2024-02-08T01:34:56.466Z,5.47
2024-02-08T01:37:23.282Z,5.88
2024-02-08T01:39:50.121Z,5.57
2024-02-08T01:42:17.480Z,5.60
2024-02-08T01:44:46.621Z,5.82
2024-02-08T01:47:14.297Z,5.07
2024-02-08T01:49:41.994Z,5.80
2024-02-08T01:52:10.499Z,5.03
2024-02-08T01:54:44.883Z,4.93
2024-02-08T01:57:12.149Z,5.82
2024-02-08T01:59:40.081Z,5.65
2024-02-08T02:02:09.035Z,5.70
2024-02-08T02:04:36.028Z,6.47
2024-02-08T02:07:04.848Z,5.45
2024-02-08T02:09:32.502Z,5.90
2024-02-08T02:12:09.032Z,5.18
2024-02-08T02:14:37.036Z,5.20
2024-02-08T02:17:14.590Z,5.30
2024-02-08T02:19:42.441Z,4.88
2024-02-08T02:22:11.281Z,6.03
2024-02-08T02:24:38.857Z,6.10
2024-02-08T02:27:07.069Z,5.70
2024-02-08T02:29:39.516Z,5.00
2024-02-08T02:32:22.223Z,4.72
2024-02-08T02:34:52.980Z,4.85
2024-02-08T02:37:20.269Z,4.55
2024-02-08T02:39:47.010Z,4.88
2024-02-08T02:42:15.810Z,5.00
2024-02-08T02:44:42.586Z,5.05
2024-02-08T02:47:09.392Z,5.25
2024-02-08T02:49:40.102Z,4.53
2024-02-08T02:52:10.128Z,4.82
2024-02-08T02:54:37.655Z,5.22
2024-02-08T02:57:04.688Z,5.60
2024-02-08T02:59:31.786Z,5.32
2024-02-08T03:01:59.114Z,5.03
2024-02-08T03:04:29.001Z,4.38
2024-02-08T03:06:55.838Z,5.15
2024-02-08T03:09:28.649Z,4.93
2024-02-08T03:11:58.509Z,6.03
2024-02-08T03:14:26.552Z,4.68
2024-02-08T03:16:53.364Z,5.65
2024-02-08T03:19:21.715Z,4.97
2024-02-08T03:21:50.669Z,4.90
2024-02-08T03:24:20.505Z,4.57
2024-02-08T03:26:48.562Z,4.97
2024-02-08T03:29:17.282Z,5.60
2024-02-08T03:31:46.730Z,6.00
2024-02-08T03:34:20.918Z,5.20
2024-02-08T03:36:48.148Z,5.95
2024-02-08T03:39:26.461Z,5.95
2024-02-08T03:42:05.723Z,5.22
2024-02-08T03:44:32.985Z,5.68
2024-02-08T03:47:06.807Z,6.45
2024-02-08T03:49:34.036Z,5.85
2024-02-08T03:52:00.977Z,5.22
2024-02-08T03:54:31.262Z,5.45
2024-02-08T03:57:07.300Z,6.38
2024-02-08T03:59:35.563Z,6.05
2024-02-08T04:02:04.747Z,6.28
2024-02-08T04:04:48.664Z,5.85
2024-02-08T04:07:22.787Z,6.00
2024-02-08T04:09:57.088Z,6.28
2024-02-08T04:12:43.636Z,6.70
2024-02-08T04:15:30.678Z,6.25
2024-02-08T04:18:16.078Z,6.65
2024-02-08T04:21:01.704Z,6.45
2024-02-08T04:23:46.994Z,6.90
2024-02-08T04:26:32.510Z,6.25
2024-02-08T04:29:18.054Z,6.10
2024-02-08T04:32:06.416Z,6.22
2024-02-08T04:34:52.246Z,5.82
2024-02-08T04:37:37.444Z,5.72
2024-02-08T04:40:23.046Z,6.13
2024-02-08T04:43:08.478Z,5.95
2024-02-08T04:45:53.849Z,7.10
2024-02-08T04:48:39.325Z,6.00
2024-02-08T04:51:29.044Z,5.90
2024-02-08T04:53:56.507Z,5.97
2024-02-08T04:56:23.467Z,5.22
2024-02-08T04:59:11.025Z,5.38
2024-02-08T05:01:39.313Z,5.45
2024-02-08T05:04:06.375Z,6.35
2024-02-08T05:06:36.374Z,6.45
2024-02-08T05:09:03.961Z,5.40
2024-02-08T05:11:31.042Z,6.22
2024-02-08T05:14:02.198Z,5.60
2024-02-08T05:16:32.251Z,6.22
2024-02-08T05:18:59.280Z,5.82
2024-02-08T05:21:29.731Z,6.20
2024-02-08T05:23:59.312Z,5.88
2024-02-08T05:26:27.059Z,6.82
2024-02-08T05:28:54.206Z,6.38
2024-02-08T05:31:21.333Z,5.80
2024-02-08T05:33:48.329Z,5.90
2024-02-08T05:36:18.873Z,5.72
2024-02-08T05:38:46.810Z,5.72
2024-02-08T05:41:18.240Z,5.40
2024-02-08T05:43:53.060Z,6.60
2024-02-08T05:46:26.104Z,6.72
2024-02-08T05:48:54.123Z,6.72
2024-02-08T05:51:27.452Z,6.40
2024-02-08T05:53:54.328Z,6.13
2024-02-08T05:56:22.426Z,6.63
2024-02-08T05:58:52.940Z,6.13
2024-02-08T06:01:25.001Z,6.43
2024-02-08T06:03:54.329Z,6.07
2024-02-08T06:06:34.502Z,6.25
2024-02-08T06:09:11.072Z,6.63
2024-02-08T06:11:38.437Z,6.80
2024-02-08T06:14:18.890Z,6.35
2024-02-08T06:16:48.668Z,6.70
2024-02-08T06:19:22.432Z,6.82
2024-02-08T06:21:49.442Z,6.57
2024-02-08T06:24:25.603Z,6.18
2024-02-08T06:27:14.348Z,7.05
2024-02-08T06:29:48.356Z,6.13
2024-02-08T06:32:27.222Z,7.53
2024-02-08T06:35:10.128Z,6.60
2024-02-08T06:37:47.275Z,6.80
2024-02-08T06:40:25.613Z,6.18
2024-02-08T06:43:14.191Z,6.25
2024-02-08T06:45:53.336Z,5.40
2024-02-08T06:48:33.384Z,5.15
2024-02-08T06:51:19.280Z,5.93
2024-02-08T06:54:05.254Z,6.15
2024-02-08T06:56:50.572Z,5.47
2024-02-08T06:59:36.081Z,5.10
2024-02-08T07:02:21.488Z,5.93
2024-02-08T07:05:10.447Z,9.48
2024-02-08T07:07:59.103Z,9.60
2024-02-08T07:10:44.827Z,10.02
2024-02-08T07:13:30.194Z,13.18
2024-02-08T07:16:15.725Z,17.90
2024-02-08T07:19:20.908Z,14.23
2024-02-08T07:22:05.957Z,13.48
2024-02-08T07:24:51.537Z,9.98
2024-02-08T07:27:36.931Z,7.85
2024-02-08T07:30:22.451Z,6.53
2024-02-08T07:33:14.521Z,7.45
2024-02-08T07:35:59.780Z,8.73
2024-02-08T07:38:45.195Z,8.25
2024-02-08T07:41:13.327Z,6.55
2024-02-08T07:43:44.995Z,6.35
2024-02-08T07:46:17.710Z,6.20
2024-02-08T07:48:45.318Z,5.38
2024-02-08T07:51:17.064Z,6.38
2024-02-08T07:56:26.247Z,4.03
2024-02-08T07:58:57.719Z,4.03
2024-02-08T08:01:33.445Z,4.00
2024-02-08T08:04:02.453Z,4.10
2024-02-08T08:06:38.816Z,3.83
2024-02-08T08:09:20.038Z,3.80
2024-02-08T08:11:52.753Z,3.53
2024-02-08T08:14:34.946Z,3.63
2024-02-08T08:17:16.703Z,2.92
2024-02-08T08:19:46.092Z,3.70
2024-02-08T08:22:25.784Z,3.45
2024-02-08T08:25:13.567Z,3.50
2024-02-08T08:27:54.347Z,3.50
2024-02-08T08:30:33.115Z,3.95
2024-02-08T08:33:02.293Z,3.72
2024-02-08T08:35:35.539Z,3.22
2024-02-08T08:38:18.839Z,3.00
2024-02-08T08:40:50.118Z,3.28
2024-02-08T08:43:22.002Z,3.30
2024-02-08T08:45:55.101Z,3.00
2024-02-08T08:48:23.192Z,3.25
2024-02-08T08:50:56.289Z,2.65
2024-02-08T08:53:30.017Z,2.97
2024-02-08T08:55:57.798Z,2.78
2024-02-08T08:58:41.328Z,2.72
2024-02-08T09:01:16.653Z,3.47
2024-02-08T09:03:45.386Z,2.78
2024-02-08T09:06:15.299Z,2.85
2024-02-08T09:08:56.033Z,2.65
2024-02-08T09:11:27.221Z,2.55
2024-02-08T09:13:55.001Z,2.95
2024-02-08T09:16:25.938Z,2.72
2024-02-08T09:19:01.713Z,2.80
2024-02-08T09:21:34.149Z,3.17
2024-02-08T09:24:06.348Z,3.13
2024-02-08T09:29:29.801Z,2.80
2024-02-08T09:32:01.274Z,3.00
2024-02-08T09:34:41.373Z,2.83
2024-02-08T09:37:09.938Z,3.55
2024-02-08T09:39:54.995Z,3.15
2024-02-08T09:42:28.471Z,2.60
2024-02-08T09:45:19.442Z,3.30
2024-02-08T09:47:53.737Z,3.60
2024-02-08T09:50:37.053Z,3.03
2024-02-08T09:53:20.612Z,2.80
2024-02-08T09:55:50.803Z,3.00
2024-02-08T09:58:34.724Z,2.45
2024-02-08T10:01:22.609Z,3.50
2024-02-08T10:04:05.790Z,2.90
2024-02-08T10:06:55.802Z,3.00
2024-02-08T10:09:37.552Z,3.58
2024-02-08T10:12:08.430Z,2.38
2024-02-08T10:14:43.126Z,2.73
2024-02-08T10:17:19.501Z,3.70
2024-02-08T10:20:31.260Z,2.88
2024-02-08T10:22:59.241Z,2.88
2024-02-08T10:25:48.551Z,3.42
2024-02-08T10:28:26.185Z,3.08
2024-02-08T10:31:13.810Z,3.05
2024-02-08T10:33:40.803Z,3.53
2024-02-08T10:36:11.783Z,3.67
2024-02-08T10:38:58.395Z,4.28
2024-02-08T10:41:49.214Z,3.30
2024-02-08T10:44:19.434Z,4.20
2024-02-08T10:46:49.483Z,4.38
2024-02-08T10:49:24.152Z,4.00
2024-02-08T10:52:01.209Z,3.83
2024-02-08T10:54:41.225Z,3.70
2024-02-08T10:57:30.391Z,3.90
2024-02-08T11:00:00.146Z,4.07
2024-02-08T11:02:33.525Z,4.78
2024-02-08T11:05:19.463Z,5.28
2024-02-08T11:07:47.650Z,4.05
2024-02-08T11:10:22.109Z,5.53
2024-02-08T11:12:57.512Z,4.70
2024-02-08T11:15:39.932Z,4.30
2024-02-08T11:18:29.617Z,4.18
2024-02-08T11:21:04.986Z,4.28
2024-02-08T11:23:46.681Z,5.15
2024-02-08T11:26:13.719Z,4.15
2024-02-08T11:28:48.751Z,4.97
2024-02-08T11:31:18.932Z,4.90
2024-02-08T11:33:46.546Z,6.40
2024-02-08T11:36:16.017Z,5.50
2024-02-08T11:38:48.322Z,5.68
2024-02-08T11:41:19.728Z,5.22
2024-02-08T11:43:52.334Z,5.55
2024-02-08T11:46:20.786Z,5.47
2024-02-08T11:48:49.105Z,5.65
2024-02-08T11:51:17.695Z,5.18
2024-02-08T11:53:46.010Z,5.32
2024-02-08T11:56:16.851Z,5.70
2024-02-08T11:58:45.488Z,5.20
2024-02-08T12:01:16.032Z,5.32
2024-02-08T12:03:44.263Z,5.35
2024-02-08T12:06:22.701Z,6.53
2024-02-08T12:09:05.646Z,5.72
2024-02-08T12:11:33.920Z,5.53
2024-02-08T12:14:11.292Z,5.90
2024-02-08T12:16:52.073Z,4.85
2024-02-08T12:22:06.277Z,5.50
2024-02-08T12:24:34.559Z,3.45
2024-02-08T12:27:13.804Z,6.22
2024-02-08T12:29:51.702Z,6.18
2024-02-08T12:32:19.093Z,5.70
2024-02-08T12:34:49.518Z,6.60
2024-02-08T12:37:18.019Z,6.68
2024-02-08T12:39:46.375Z,4.50
2024-02-08T12:42:16.523Z,4.63
2024-02-08T12:44:49.993Z,5.20
2024-02-08T12:47:18.470Z,5.07
2024-02-08T12:49:49.632Z,4.55
2024-02-08T12:52:21.276Z,4.28
2024-02-08T12:54:55.660Z,3.83
2024-02-08T12:57:25.135Z,4.65
2024-02-08T13:00:01.797Z,4.93
2024-02-08T13:02:34.124Z,4.80
2024-02-08T13:05:04.957Z,4.80
2024-02-08T13:07:35.478Z,5.30
2024-02-08T13:10:09.435Z,3.92
2024-02-08T13:12:38.389Z,4.90
2024-02-08T13:15:11.181Z,4.07
2024-02-08T13:17:39.085Z,4.40
2024-02-08T13:20:18.008Z,4.72
2024-02-08T13:22:46.584Z,3.65
2024-02-08T13:25:13.833Z,3.58
2024-02-08T13:27:42.063Z,4.30
2024-02-08T13:30:16.013Z,4.47
2024-02-08T13:32:53.912Z,3.20
2024-02-08T13:35:21.341Z,3.58
2024-02-08T13:38:02.623Z,3.65
2024-02-08T13:40:29.616Z,2.70
2024-02-08T13:43:00.644Z,3.80
2024-02-08T13:45:30.909Z,3.20
2024-02-08T13:48:02.500Z,3.53
2024-02-08T13:50:32.216Z,3.13
2024-02-08T13:53:01.847Z,3.33
2024-02-08T13:55:45.223Z,3.90
2024-02-08T13:58:19.564Z,4.00
2024-02-08T14:00:47.284Z,3.50
2024-02-08T14:03:17.840Z,3.42
2024-02-08T14:05:52.083Z,3.75
2024-02-08T14:08:19.751Z,2.47
2024-02-08T14:10:47.079Z,4.03
2024-02-08T14:13:18.028Z,1.88
2024-02-08T14:15:47.347Z,3.13
2024-02-08T14:18:33.263Z,2.70
2024-02-08T14:21:03.185Z,3.05
2024-02-08T14:23:41.649Z,1.67
2024-02-08T14:26:31.024Z,2.67
2024-02-08T14:28:57.786Z,2.38
2024-02-08T14:31:24.632Z,2.80
2024-02-08T14:33:52.196Z,2.17
2024-02-08T14:36:19.652Z,3.42
2024-02-08T14:38:47.421Z,2.13
2024-02-08T14:41:27.724Z,1.90
2024-02-08T14:43:56.106Z,2.67
2024-02-08T14:46:27.288Z,2.67
2024-02-08T14:48:55.051Z,2.95
2024-02-08T14:51:24.931Z,2.97
2024-02-08T14:53:55.696Z,3.53
2024-02-08T14:56:22.706Z,4.85
2024-02-08T14:59:10.940Z,3.63
2024-02-08T15:01:39.734Z,3.55
2024-02-08T15:04:23.368Z,4.43
2024-02-08T15:07:06.019Z,3.00
2024-02-08T15:09:36.876Z,3.35
2024-02-08T15:12:24.286Z,4.00
2024-02-08T15:14:51.017Z,3.60
2024-02-08T15:17:20.645Z,3.83
2024-02-08T15:19:48.271Z,3.22
2024-02-08T15:22:20.202Z,2.47
2024-02-08T15:24:51.062Z,3.88
2024-02-08T15:27:32.652Z,3.50
2024-02-08T15:30:28.762Z,3.42
2024-02-08T15:32:58.096Z,3.97
2024-02-08T15:35:37.004Z,3.47
2024-02-08T15:38:23.172Z,3.13
2024-02-08T15:40:56.504Z,3.80
2024-02-08T15:43:26.716Z,3.00
2024-02-08T15:45:54.362Z,4.05
2024-02-08T15:48:33.452Z,3.25
2024-02-08T15:51:10.812Z,3.78
2024-02-08T15:53:50.567Z,3.15
2024-02-08T15:56:21.024Z,2.83
2024-02-08T15:58:49.319Z,2.08
2024-02-08T16:01:21.104Z,3.00
2024-02-08T16:03:56.261Z,3.50
2024-02-08T16:06:54.327Z,2.38
2024-02-08T16:09:27.989Z,3.58
2024-02-08T16:12:15.736Z,2.63
2024-02-08T16:14:49.371Z,2.53
2024-02-08T16:17:33.070Z,3.25
2024-02-08T16:20:09.851Z,1.77
2024-02-08T16:22:49.619Z,2.55
2024-02-08T16:25:18.475Z,2.10
2024-02-08T16:27:49.648Z,1.75
2024-02-08T16:30:34.741Z,2.17
2024-02-08T16:33:10.126Z,2.00
2024-02-08T16:35:58.849Z,2.40
2024-02-08T16:38:32.553Z,2.05
2024-02-08T16:41:06.065Z,2.30
2024-02-08T16:43:34.652Z,1.45
2024-02-08T16:46:12.662Z,2.03
2024-02-08T16:48:46.070Z,1.73
2024-02-08T16:51:17.963Z,2.10
2024-02-08T16:53:51.165Z,1.85
2024-02-08T16:56:22.452Z,1.48
2024-02-08T16:58:57.129Z,1.80
2024-02-08T17:01:30.993Z,2.30
2024-02-08T17:04:02.483Z,1.88
2024-02-08T17:06:34.998Z,1.43
2024-02-08T17:09:13.670Z,1.48
2024-02-08T17:11:45.912Z,2.03
2024-02-08T17:14:33.772Z,2.15
2024-02-08T17:17:07.361Z,2.15
2024-02-08T17:19:37.046Z,1.48
2024-02-08T17:22:06.840Z,2.05
2024-02-08T17:24:42.768Z,2.63
2024-02-08T17:27:28.652Z,2.40
2024-02-08T17:30:05.648Z,1.80
2024-02-08T17:32:44.164Z,2.03
2024-02-08T17:35:11.650Z,2.65
2024-02-08T17:37:49.399Z,2.47
2024-02-08T17:40:20.222Z,2.83
2024-02-08T17:42:47.613Z,2.22
2024-02-08T17:45:17.334Z,2.38
2024-02-08T17:47:44.368Z,2.50
2024-02-08T17:50:30.234Z,2.47
2024-02-08T17:52:57.872Z,2.35
2024-02-08T17:55:34.325Z,3.55
2024-02-08T17:58:02.414Z,3.00
2024-02-08T18:00:29.322Z,3.17
2024-02-08T18:02:57.579Z,3.33
2024-02-08T18:05:28.278Z,2.53
2024-02-08T18:07:58.266Z,3.10
2024-02-08T18:10:38.474Z,3.05
2024-02-08T18:13:10.452Z,3.40
2024-02-08T18:18:06.496Z,2.92
2024-02-08T18:20:35.057Z,2.13
2024-02-08T18:23:04.756Z,3.80
2024-02-08T18:25:32.208Z,2.40
2024-02-08T18:28:01.254Z,3.22
2024-02-08T18:30:30.326Z,2.85
2024-02-08T18:33:09.794Z,2.03
2024-02-08T18:35:37.195Z,3.80
2024-02-08T18:38:09.850Z,3.08
2024-02-08T18:40:38.614Z,3.95
2024-02-08T18:43:06.382Z,4.25
2024-02-08T18:45:38.466Z,3.53
2024-02-08T18:48:06.510Z,3.78
2024-02-08T18:50:34.134Z,4.45
2024-02-08T18:53:01.693Z,6.13
2024-02-08T18:55:44.990Z,4.43
2024-02-08T18:58:18.191Z,5.32
2024-02-08T19:00:55.486Z,4.70
2024-02-08T19:03:23.433Z,4.97
2024-02-08T19:05:50.962Z,4.03
2024-02-08T19:08:22.119Z,5.55
2024-02-08T19:10:53.720Z,5.10
2024-02-08T19:13:36.813Z,5.03
2024-02-08T19:16:15.743Z,5.00
2024-02-08T19:18:46.457Z,5.07
2024-02-08T19:21:32.033Z,4.83
2024-02-08T19:24:03.501Z,4.10
2024-02-08T19:29:00.431Z,5.40
2024-02-08T19:31:31.310Z,3.65
2024-02-08T19:34:04.848Z,5.38
2024-02-08T19:36:32.642Z,4.85
2024-02-08T19:39:12.739Z,10.40
2024-02-08T19:41:39.795Z,5.03
2024-02-08T19:44:08.027Z,8.43
2024-02-08T19:46:39.766Z,4.65
2024-02-08T19:49:10.646Z,4.45
2024-02-08T19:51:37.679Z,5.28
2024-02-08T19:54:09.296Z,4.78
2024-02-08T19:56:38.111Z,4.72
2024-02-08T19:59:07.845Z,5.10
2024-02-08T20:01:37.311Z,5.13
2024-02-08T20:04:05.934Z,4.03
2024-02-08T20:06:35.415Z,4.97
2024-02-08T20:09:09.144Z,5.68
2024-02-08T20:11:40.256Z,5.38
2024-02-08T20:14:12.975Z,4.80
2024-02-08T20:16:43.040Z,4.82
2024-02-08T20:19:14.603Z,5.05
2024-02-08T20:21:41.578Z,5.53
2024-02-08T20:24:12.837Z,4.97
2024-02-08T20:26:39.701Z,5.72
2024-02-08T20:29:06.387Z,5.10
2024-02-08T20:31:33.315Z,5.15
2024-02-08T20:34:00.234Z,5.40
2024-02-08T20:36:26.957Z,5.57
2024-02-08T20:38:56.721Z,5.88
2024-02-08T20:41:26.791Z,4.95
2024-02-08T20:44:06.957Z,6.25
2024-02-08T20:46:34.200Z,5.15
2024-02-08T20:49:02.681Z,5.97
2024-02-08T20:51:29.739Z,5.35
2024-02-08T20:53:56.473Z,5.43
2024-02-08T20:56:29.371Z,5.57
2024-02-08T20:58:59.824Z,6.13
2024-02-08T21:01:26.782Z,6.65
2024-02-08T21:03:57.326Z,6.97
2024-02-08T21:06:26.112Z,6.90
2024-02-08T21:08:52.860Z,7.30
2024-02-08T21:11:19.564Z,6.68
2024-02-08T21:13:50.148Z,6.32
2024-02-08T21:16:20.979Z,3.97
2024-02-08T21:18:48.548Z,6.13
2024-02-08T21:21:15.288Z,6.60
2024-02-08T21:23:44.806Z,6.40
2024-02-08T21:26:16.244Z,6.53
2024-02-08T21:28:52.116Z,7.53
2024-02-08T21:31:19.915Z,7.57
2024-02-08T21:33:51.101Z,7.22
2024-02-08T21:36:18.971Z,7.43
2024-02-08T21:38:50.144Z,7.53
2024-02-08T21:41:17.645Z,7.95
2024-02-08T21:43:44.709Z,9.63
2024-02-08T21:46:14.427Z,10.38
2024-02-08T21:48:44.868Z,8.30
2024-02-08T21:51:13.413Z,8.05
2024-02-08T21:53:40.250Z,9.32
2024-02-08T21:56:15.347Z,8.52
2024-02-08T21:58:44.730Z,8.93
2024-02-08T22:03:58.327Z,9.20
2024-02-08T22:06:25.839Z,8.98
2024-02-08T22:08:52.797Z,9.15
2024-02-08T22:11:19.536Z,8.77
2024-02-08T22:13:46.907Z,10.57
2024-02-08T22:16:16.621Z,9.05
2024-02-08T22:18:47.104Z,9.88
2024-02-08T22:21:17.866Z,9.63
2024-02-08T22:23:45.249Z,9.68
2024-02-08T22:26:13.948Z,9.63
2024-02-08T22:28:44.141Z,9.48
2024-02-08T22:31:13.678Z,10.23
2024-02-08T22:33:40.525Z,10.05
2024-02-08T22:36:07.741Z,10.95
2024-02-08T22:38:34.540Z,9.95
2024-02-08T22:41:01.531Z,10.25
2024-02-08T22:43:28.629Z,12.07
2024-02-08T22:45:55.761Z,10.68
2024-02-08T22:48:23.085Z,10.93
2024-02-08T22:50:52.394Z,10.98
2024-02-08T22:53:20.652Z,11.15
2024-02-08T22:55:47.566Z,11.77
2024-02-08T22:58:14.340Z,12.82
2024-02-08T23:00:50.694Z,12.45
2024-02-08T23:03:18.166Z,12.07
2024-02-08T23:05:46.752Z,12.15
2024-02-08T23:08:16.933Z,11.02
2024-02-08T23:10:43.761Z,13.20
2024-02-08T23:13:14.295Z,12.82
2024-02-08T23:15:45.790Z,12.55
2024-02-08T23:18:15.731Z,12.98
2024-02-08T23:20:44.639Z,11.23
2024-02-08T23:23:14.435Z,10.93
2024-02-08T23:25:41.841Z,11.05
2024-02-08T23:28:09.901Z,12.25
2024-02-08T23:30:36.890Z,12.30
2024-02-08T23:33:03.832Z,12.38
2024-02-08T23:35:31.647Z,11.18
2024-02-08T23:38:03.893Z,10.20
2024-02-08T23:40:30.613Z,11.65
2024-02-08T23:42:59.365Z,14.75
2024-02-08T23:45:32.059Z,12.68
2024-02-08T23:48:00.679Z,12.10
2024-02-08T23:50:29.186Z,13.75
2024-02-08T23:53:01.336Z,12.93
2024-02-08T23:55:29.188Z,13.98
2024-02-08T23:57:57.122Z,14.73
